Time;durP1;ratioP1;P1;durP2;ratioP2;P2;SDS_P1;SDS_P2;PMS_P1;PMS_P2;Temp;Humidity;BMP_temperature;BMP_pressure;BME280_temperature;BME280_humidity;BME280_pressure;Samples;Min_cycle;Max_cycle;Signal;HPM_P1;HPM_P2
2023/12/16 00:01:50;;;;;;;;;24.75;24.25;;;;;8.77;100.00;104063.31;4997323;28;45356;-76
2023/12/16 00:04:15;;;;;;;;;28.00;23.33;;;;;8.77;100.00;104058.94;4999492;28;45231;-76
2023/12/16 00:06:41;;;;;;;;;25.75;25.50;;;;;8.57;100.00;104030.53;5014991;28;51356;-76
2023/12/16 00:09:06;;;;;;;;;29.25;26.75;;;;;8.72;100.00;104058.00;5000961;28;45310;-76
2023/12/16 00:11:32;;;;;;;;;32.50;27.00;;;;;8.67;100.00;104053.53;5014317;28;45317;-75
2023/12/16 00:13:57;;;;;;;;;32.00;27.00;;;;;8.61;100.00;104053.44;4993585;28;45548;-75
2023/12/16 00:16:25;;;;;;;;;27.25;21.75;;;;;8.49;100.00;104027.81;4992203;28;46506;-75
2023/12/16 00:18:51;;;;;;;;;27.00;24.50;;;;;8.09;100.00;103964.81;5002228;28;45476;-75
2023/12/16 00:21:16;;;;;;;;;25.33;23.33;;;;;8.58;100.00;104053.41;5020553;28;45440;-75
2023/12/16 00:23:42;;;;;;;;;26.50;24.00;;;;;8.49;100.00;104043.63;5005766;28;45608;-75
2023/12/16 00:26:07;;;;;;;;;33.75;22.00;;;;;8.54;100.00;104049.84;4999660;28;45385;-74
2023/12/16 00:28:32;;;;;;;;;32.00;25.25;;;;;8.38;100.00;104029.41;5006452;28;45424;-74
2023/12/16 00:30:58;;;;;;;;;26.75;22.25;;;;;8.39;100.00;104031.19;4993936;28;45369;-76
2023/12/16 00:33:23;;;;;;;;;29.00;22.50;;;;;8.30;100.00;104041.59;4999972;28;62182;-77
2023/12/16 00:35:48;;;;;;;;;20.00;17.50;;;;;8.31;100.00;104043.38;4987953;28;47225;-77
2023/12/16 00:38:14;;;;;;;;;28.67;20.67;;;;;8.33;100.00;104052.19;5019651;28;45278;-76
2023/12/16 00:40:39;;;;;;;;;23.00;19.75;;;;;8.24;100.00;104041.50;5023718;28;45466;-76
2023/12/16 00:43:05;;;;;;;;;23.50;21.00;;;;;8.41;100.00;104070.78;5023746;28;45499;-76
2023/12/16 00:45:30;;;;;;;;;29.00;25.67;;;;;8.34;100.00;104054.84;5004147;28;47561;-76
2023/12/16 00:47:56;;;;;;;;;23.00;22.67;;;;;8.38;100.00;104067.22;5012299;28;45342;-76
2023/12/16 00:50:21;;;;;;;;;25.67;20.33;;;;;8.34;100.00;104053.97;5023150;28;45553;-76
2023/12/16 00:52:46;;;;;;;;;27.33;21.33;;;;;7.99;100.00;103990.16;5016575;28;45361;-76
2023/12/16 00:55:12;;;;;;;;;23.50;20.00;;;;;8.38;100.00;104073.38;4988453;28;54612;-76
2023/12/16 00:57:38;;;;;;;;;29.50;25.00;;;;;8.35;100.00;104055.72;5016695;28;45312;-76
2023/12/16 01:00:05;;;;;;;;;22.75;20.00;;;;;8.29;100.00;104048.63;5000205;28;45394;-77
2023/12/16 01:02:30;;;;;;;;;21.67;21.67;;;;;8.18;100.00;104030.88;5009795;28;45471;-76
2023/12/16 01:04:56;;;;;;;;;25.50;24.75;;;;;8.31;100.00;104065.34;5005771;28;45578;-76
2023/12/16 01:07:21;;;;;;;;;22.67;21.00;;;;;8.18;100.00;104042.25;5006592;28;45349;-76
2023/12/16 01:09:49;;;;;;;;;25.75;21.00;;;;;8.21;100.00;104047.59;5014157;28;45332;-76
2023/12/16 01:12:14;;;;;;;;;26.00;21.75;;;;;8.09;100.00;104025.44;5024720;28;45567;-76
2023/12/16 01:14:40;;;;;;;;;25.00;20.75;;;;;8.20;100.00;104063.41;5012903;28;45445;-76
2023/12/16 01:17:05;;;;;;;;;17.75;16.50;;;;;8.13;100.00;104050.97;5007100;28;45352;-76
2023/12/16 01:19:31;;;;;;;;;28.75;24.25;;;;;7.96;100.00;104019.09;5014874;28;45259;-76
2023/12/16 01:21:56;;;;;;;;;22.50;20.75;;;;;7.95;100.00;104048.94;5005639;28;45488;-77
2023/12/16 01:24:21;;;;;;;;;26.25;15.25;;;;;8.00;100.00;104042.00;5015663;28;45436;-76
2023/12/16 01:26:47;;;;;;;;;21.50;20.75;;;;;8.02;100.00;104049.91;5003457;28;59656;-77
2023/12/16 01:29:12;;;;;;;;;28.50;26.75;;;;;7.98;100.00;104042.84;5014577;28;45266;-76
2023/12/16 01:31:37;;;;;;;;;25.67;20.33;;;;;7.97;100.00;104044.59;4990931;28;60390;-76
2023/12/16 01:34:03;;;;;;;;;24.25;23.50;;;;;7.83;100.00;104020.66;5022778;28;61717;-76
2023/12/16 01:36:28;;;;;;;;;23.25;21.00;;;;;7.84;100.00;104038.25;5036798;28;45327;-77
2023/12/16 01:38:53;;;;;;;;;34.50;26.00;;;;;7.88;100.00;104043.56;5018049;28;45359;-76
2023/12/16 01:41:19;;;;;;;;;22.33;22.00;;;;;7.78;100.00;104030.25;5018086;28;45330;-77
2023/12/16 01:43:44;;;;;;;;;23.50;21.00;;;;;7.83;100.00;104059.28;5009535;28;45509;-76
2023/12/16 01:46:10;;;;;;;;;28.33;25.67;;;;;7.69;100.00;104045.88;5006217;28;45378;-76
2023/12/16 01:48:35;;;;;;;;;14.00;14.00;;;;;7.64;100.00;104036.16;4998178;28;45422;-77
2023/12/16 01:51:01;;;;;;;;;25.33;21.00;;;;;7.67;100.00;104050.25;4991137;28;45356;-76
2023/12/16 01:53:29;;;;;;;;;26.67;22.00;;;;;7.58;100.00;104047.47;4997155;28;46811;-76
2023/12/16 01:55:55;;;;;;;;;26.33;23.33;;;;;7.50;100.00;104054.34;5001162;28;45302;-76
2023/12/16 01:58:22;;;;;;;;;26.25;22.25;;;;;7.54;100.00;104073.72;4996926;28;45372;-76
2023/12/16 02:00:51;;;;;;;;;27.75;25.50;;;;;7.50;100.00;104078.03;4983234;28;45444;-76
2023/12/16 02:03:18;;;;;;;;;27.00;25.50;;;;;7.45;100.00;104077.09;5003520;28;45484;-77
2023/12/16 02:05:44;;;;;;;;;25.50;21.25;;;;;7.20;100.00;104038.88;5014946;28;45766;-77
2023/12/16 02:08:09;;;;;;;;;31.75;26.00;;;;;7.20;100.00;104053.78;5016604;28;49116;-76
2023/12/16 02:10:34;;;;;;;;;23.67;21.00;;;;;7.22;100.00;104057.34;5015381;28;50278;-77
2023/12/16 02:13:04;;;;;;;;;25.67;24.33;;;;;7.13;100.00;104055.41;5007520;28;45210;-76
2023/12/16 02:15:29;;;;;;;;;30.25;23.50;;;;;7.25;100.00;104076.72;5022081;28;45418;-76
2023/12/16 02:17:54;;;;;;;;;29.50;23.25;;;;;7.23;100.00;104067.03;5022116;28;45394;-76
2023/12/16 02:20:20;;;;;;;;;25.75;24.00;;;;;7.15;100.00;104066.88;5018393;28;45607;-76
2023/12/16 02:22:46;;;;;;;;;32.00;24.00;;;;;6.91;100.00;104016.41;5012764;28;46690;-76
2023/12/16 02:25:13;;;;;;;;;31.00;23.25;;;;;7.03;100.00;104044.69;4989834;28;45475;-76
2023/12/16 02:27:40;;;;;;;;;24.00;22.50;;;;;7.01;100.00;104043.78;4991387;28;45469;-77
2023/12/16 02:30:07;;;;;;;;;31.75;27.50;;;;;6.95;100.00;104038.38;5014799;28;45298;-76
2023/12/16 02:32:33;;;;;;;;;28.00;27.75;;;;;6.93;100.00;104053.28;4982640;28;48336;-76
2023/12/16 02:34:58;;;;;;;;;26.50;25.75;;;;;6.96;100.00;104071.75;5016682;28;45376;-76
2023/12/16 02:37:23;;;;;;;;;31.50;22.50;;;;;6.79;100.00;104053.88;5019955;28;45352;-76
2023/12/16 02:39:48;;;;;;;;;25.25;23.00;;;;;6.88;100.00;104068.06;4991989;28;45297;-77
2023/12/16 02:42:14;;;;;;;;;25.50;22.00;;;;;6.78;100.00;104065.25;5007583;28;52364;-76
2023/12/16 02:44:39;;;;;;;;;29.75;27.00;;;;;6.77;100.00;104068.72;5019185;28;45588;-76
2023/12/16 02:47:04;;;;;;;;;27.75;23.00;;;;;6.76;100.00;104074.88;5011028;28;45500;-76
2023/12/16 02:49:30;;;;;;;;;28.50;21.00;;;;;6.60;100.00;104058.72;4996676;28;45512;-76
2023/12/16 02:51:55;;;;;;;;;26.00;25.00;;;;;6.49;100.00;104055.84;5019928;28;54990;-76
2023/12/16 02:54:20;;;;;;;;;26.50;25.75;;;;;6.70;100.00;104098.41;5020271;28;45364;-76
2023/12/16 02:56:46;;;;;;;;;31.00;24.25;;;;;6.73;100.00;104081.81;4984135;28;45458;-76
2023/12/16 02:59:11;;;;;;;;;33.25;27.25;;;;;6.70;100.00;104089.63;5011484;28;45338;-76
2023/12/16 03:01:36;;;;;;;;;34.75;27.75;;;;;6.66;100.00;104083.41;5001701;28;47075;-76
2023/12/16 03:04:02;;;;;;;;;29.25;26.50;;;;;6.67;100.00;104073.78;5010731;28;45440;-76
2023/12/16 03:06:27;;;;;;;;;33.75;29.50;;;;;6.70;100.00;104076.47;4985152;28;45347;-76
2023/12/16 03:08:52;;;;;;;;;36.00;30.00;;;;;6.79;100.00;104092.44;4988287;28;45329;-76
2023/12/16 03:11:18;;;;;;;;;20.50;20.50;;;;;6.71;100.00;104073.88;5013033;28;46085;-76
2023/12/16 03:13:44;;;;;;;;;34.25;28.75;;;;;6.86;100.00;104094.34;4990813;28;45546;-76
2023/12/16 03:16:10;;;;;;;;;26.25;21.50;;;;;6.78;100.00;104070.50;5007136;28;45541;-76
2023/12/16 03:18:36;;;;;;;;;33.50;29.25;;;;;6.85;100.00;104091.69;4990576;28;45478;-76
2023/12/16 03:21:05;;;;;;;;;26.75;23.00;;;;;6.88;100.00;104084.75;4995625;28;46724;-76
2023/12/16 03:23:30;;;;;;;;;27.25;25.50;;;;;7.02;100.00;104129.75;4999559;28;45454;-75
2023/12/16 03:25:55;;;;;;;;;26.25;24.75;;;;;6.97;100.00;104078.78;5010088;28;45319;-77
2023/12/16 03:28:21;;;;;;;;;22.75;20.75;;;;;7.03;100.00;104090.34;5005372;28;45442;-76
2023/12/16 03:30:46;;;;;;;;;27.50;25.75;;;;;6.93;100.00;104069.94;5019810;28;45364;-77
2023/12/16 03:33:11;;;;;;;;;25.00;23.75;;;;;7.12;100.00;104090.50;5004751;28;45899;-76
2023/12/16 03:35:37;;;;;;;;;28.00;27.25;;;;;7.06;100.00;104076.34;4996951;28;45283;-76
2023/12/16 03:38:02;;;;;;;;;26.75;22.25;;;;;7.24;100.00;104096.00;5001250;28;45528;-76
2023/12/16 03:40:29;;;;;;;;;29.25;23.25;;;;;7.28;100.00;104089.06;5019425;28;45404;-76
2023/12/16 03:42:55;;;;;;;;;32.25;25.00;;;;;7.19;100.00;104067.81;5003061;28;45283;-76
2023/12/16 03:45:20;;;;;;;;;24.00;24.00;;;;;7.29;100.00;104090.84;5014153;28;45445;-76
2023/12/16 03:47:46;;;;;;;;;21.67;18.67;;;;;7.27;100.00;104066.22;5005884;28;51671;-76
2023/12/16 03:50:11;;;;;;;;;22.00;17.00;;;;;7.39;100.00;104084.88;4997722;28;45328;-76
2023/12/16 03:52:36;;;;;;;;;24.67;20.33;;;;;7.39;100.00;104079.63;5014423;28;45289;-76
2023/12/16 03:55:03;;;;;;;;;22.00;17.67;;;;;7.42;100.00;104092.84;4982917;28;45755;-76
2023/12/16 03:57:32;;;;;;;;;19.00;19.00;;;;;7.30;100.00;104055.72;5011398;28;45463;-76
2023/12/16 03:59:58;;;;;;;;;25.00;18.67;;;;;7.37;100.00;104057.63;5017092;28;48096;-76
2023/12/16 04:02:23;;;;;;;;;22.00;19.25;;;;;7.37;100.00;104054.09;4995217;28;45355;-76
2023/12/16 04:04:49;;;;;;;;;23.33;22.00;;;;;7.56;100.00;104086.06;4986737;28;45463;-76
2023/12/16 04:07:14;;;;;;;;;23.75;19.50;;;;;7.59;100.00;104079.97;5013042;28;45771;-76
2023/12/16 04:09:40;;;;;;;;;18.67;16.33;;;;;7.62;100.00;104085.31;5000695;28;45453;-76
2023/12/16 04:12:06;;;;;;;;;20.50;20.25;;;;;7.59;100.00;104067.66;5007276;28;45480;-76
2023/12/16 04:14:39;;;;;;;;;20.33;18.33;;;;;7.49;100.00;104039.44;4981243;28;45358;-76
2023/12/16 04:17:04;;;;;;;;;21.33;19.00;;;;;7.70;100.00;104081.91;4988258;28;45410;-76
2023/12/16 04:19:30;;;;;;;;;28.33;22.00;;;;;7.62;100.00;104053.69;5008023;28;48666;-76
2023/12/16 04:21:55;;;;;;;;;20.33;17.67;;;;;7.60;100.00;104053.66;5006803;28;45343;-76
2023/12/16 04:24:21;;;;;;;;;19.67;16.67;;;;;7.71;100.00;104081.06;5020281;28;45956;-76
2023/12/16 04:26:46;;;;;;;;;25.33;19.00;;;;;7.55;100.00;104044.78;5015701;28;45502;-76
2023/12/16 04:29:11;;;;;;;;;24.00;24.00;;;;;7.73;100.00;104071.44;4981096;28;58849;-76
2023/12/16 04:31:38;;;;;;;;;19.33;15.00;;;;;7.63;100.00;104044.91;4999981;28;45306;-76
2023/12/16 04:34:03;;;;;;;;;21.00;18.00;;;;;7.65;100.00;104056.38;5019143;28;45193;-76
2023/12/16 04:36:29;;;;;;;;;23.33;21.33;;;;;7.64;100.00;104051.97;5000529;28;45349;-76
2023/12/16 04:38:55;;;;;;;;;16.00;11.67;;;;;7.74;100.00;104061.78;5010312;28;46875;-74
2023/12/16 04:41:21;;;;;;;;;20.67;19.00;;;;;7.72;100.00;104069.66;5011897;28;45402;-77
2023/12/16 04:43:46;;;;;;;;;23.00;21.33;;;;;7.69;100.00;104066.09;4998796;28;45452;-74
2023/12/16 04:46:12;;;;;;;;;22.67;19.00;;;;;7.74;100.00;104072.31;4989829;28;45453;-76
2023/12/16 04:48:37;;;;;;;;;22.67;17.00;;;;;7.63;100.00;104052.81;5016543;28;45360;-75
2023/12/16 04:51:06;;;;;;;;;22.00;21.00;;;;;7.65;100.00;104070.44;5017133;28;45407;-75
2023/12/16 04:53:32;;;;;;;;;25.67;15.33;;;;;7.66;100.00;104066.91;4993201;28;45347;-75
2023/12/16 04:55:58;;;;;;;;;24.33;18.67;;;;;7.73;100.00;104071.44;4987265;28;45326;-75
2023/12/16 04:58:24;;;;;;;;;19.00;18.33;;;;;7.70;100.00;104059.94;5004799;28;45392;-76
2023/12/16 05:00:50;;;;;;;;;15.00;14.33;;;;;7.67;100.00;104058.16;5018129;28;45211;-76
2023/12/16 05:03:16;;;;;;;;;20.33;18.00;;;;;7.67;100.00;104070.44;4984028;28;45339;-76
2023/12/16 05:05:41;;;;;;;;;17.00;17.00;;;;;7.69;100.00;104077.50;4990513;28;45391;-76
2023/12/16 05:08:06;;;;;;;;;22.33;15.00;;;;;7.52;100.00;104052.66;4994606;28;46447;-76
2023/12/16 05:10:32;;;;;;;;;21.67;15.67;;;;;7.67;100.00;104084.50;5008358;28;45477;-76
2023/12/16 05:12:57;;;;;;;;;20.00;16.00;;;;;7.56;100.00;104075.53;4987428;28;45346;-76
2023/12/16 05:15:22;;;;;;;;;27.00;20.33;;;;;7.40;100.00;104039.25;5008405;28;45272;-76
2023/12/16 05:17:47;;;;;;;;;22.67;19.00;;;;;7.56;100.00;104061.50;5013628;28;52434;-76
2023/12/16 05:20:14;;;;;;;;;25.00;19.00;;;;;7.66;100.00;104072.19;5001442;28;45405;-76
2023/12/16 05:22:40;;;;;;;;;20.25;19.50;;;;;7.55;100.00;104043.91;5010882;28;45376;-76
2023/12/16 05:25:06;;;;;;;;;20.00;18.67;;;;;7.52;100.00;104039.47;5005064;28;45584;-76
2023/12/16 05:27:31;;;;;;;;;23.00;17.67;;;;;7.64;100.00;104059.84;5014187;28;46308;-76
2023/12/16 05:29:58;;;;;;;;;21.33;21.33;;;;;7.61;100.00;104068.59;4998122;28;45918;-76
2023/12/16 05:32:23;;;;;;;;;21.67;20.00;;;;;7.51;100.00;104050.88;5003294;28;45358;-76
2023/12/16 05:34:50;;;;;;;;;22.00;21.50;;;;;7.53;100.00;104064.94;5009461;28;45601;-76
2023/12/16 05:37:16;;;;;;;;;22.50;22.50;;;;;7.44;100.00;104048.97;4999005;28;46346;-76
2023/12/16 05:39:42;;;;;;;;;16.33;15.67;;;;;7.52;100.00;104063.19;4990857;28;63980;-76
2023/12/16 05:42:07;;;;;;;;;21.00;19.25;;;;;7.50;100.00;104064.88;5016798;28;45369;-75
2023/12/16 05:44:33;;;;;;;;;21.33;17.67;;;;;7.47;100.00;104072.72;5003107;28;45344;-76
2023/12/16 05:46:58;;;;;;;;;19.33;17.67;;;;;7.36;100.00;104066.41;5005609;28;45473;-76
2023/12/16 05:49:23;;;;;;;;;21.33;16.33;;;;;7.32;100.00;104060.19;5002507;28;45562;-75
2023/12/16 05:51:48;;;;;;;;;17.33;15.00;;;;;7.33;100.00;104068.94;5004833;28;45437;-75
2023/12/16 05:54:14;;;;;;;;;22.67;19.00;;;;;7.37;100.00;104069.88;4989668;28;46377;-75
2023/12/16 05:56:39;;;;;;;;;17.67;14.67;;;;;7.26;100.00;104053.94;4991790;28;45402;-75
2023/12/16 05:59:04;;;;;;;;;15.00;14.00;;;;;7.33;100.00;104066.31;5000571;28;50389;-76
2023/12/16 06:01:30;;;;;;;;;15.00;15.00;;;;;7.32;100.00;104088.25;5011163;28;45458;-76
2023/12/16 06:03:55;;;;;;;;;17.33;14.67;;;;;7.24;100.00;104069.69;4997972;28;45415;-76
2023/12/16 06:06:20;;;;;;;;;16.00;16.00;;;;;6.92;100.00;104018.19;5020622;28;54872;-75
2023/12/16 06:08:46;;;;;;;;;17.00;13.67;;;;;7.23;100.00;104067.03;4987153;28;45437;-75
2023/12/16 06:11:12;;;;;;;;;18.67;16.67;;;;;7.16;100.00;104080.94;5011745;28;57042;-75
2023/12/16 06:13:38;;;;;;;;;20.33;19.00;;;;;7.06;100.00;104071.97;5014497;28;45450;-75
2023/12/16 06:16:03;;;;;;;;;27.00;20.75;;;;;6.91;100.00;104060.22;5018043;28;45576;-76
2023/12/16 06:18:29;;;;;;;;;17.33;13.33;;;;;6.88;100.00;104061.06;5017111;28;45285;-75
2023/12/16 06:20:54;;;;;;;;;20.00;17.67;;;;;6.91;100.00;104076.91;5002935;28;45520;-75
2023/12/16 06:23:19;;;;;;;;;17.33;16.00;;;;;6.88;100.00;104075.94;5019183;28;53189;-76
2023/12/16 06:25:45;;;;;;;;;19.00;15.33;;;;;6.84;100.00;104082.91;5010308;28;45579;-76
2023/12/16 06:28:10;;;;;;;;;23.00;13.67;;;;;6.82;100.00;104090.78;4985367;28;45565;-75
2023/12/16 06:30:35;;;;;;;;;26.67;15.67;;;;;6.65;100.00;104068.47;4984413;28;45346;-76
2023/12/16 06:33:01;;;;;;;;;19.25;16.00;;;;;6.74;100.00;104099.38;4994608;28;45966;-75
2023/12/16 06:35:26;;;;;;;;;17.67;13.67;;;;;6.69;100.00;104096.63;4990330;28;55576;-75
2023/12/16 06:37:51;;;;;;;;;20.67;16.00;;;;;6.63;100.00;104099.13;5010228;28;45271;-76
2023/12/16 06:40:17;;;;;;;;;16.00;16.00;;;;;6.50;100.00;104083.94;4997319;28;45450;-75
2023/12/16 06:42:42;;;;;;;;;20.75;19.25;;;;;6.37;100.00;104076.63;4998477;28;45542;-75
2023/12/16 06:45:08;;;;;;;;;22.25;20.25;;;;;6.36;100.00;104080.09;5004177;28;46896;-75
2023/12/16 06:47:34;;;;;;;;;21.00;17.00;;;;;6.45;100.00;104103.97;5008661;28;45410;-76
2023/12/16 06:49:59;;;;;;;;;21.25;20.00;;;;;6.42;100.00;104100.38;4996915;28;45302;-76
2023/12/16 06:52:24;;;;;;;;;19.25;19.25;;;;;6.34;100.00;104094.97;5010050;28;60358;-75
2023/12/16 06:54:49;;;;;;;;;16.50;15.50;;;;;6.20;100.00;104086.75;5004689;28;51800;-75
2023/12/16 06:57:15;;;;;;;;;14.33;14.33;;;;;6.09;100.00;104072.47;5001242;28;46657;-76
2023/12/16 06:59:40;;;;;;;;;16.00;15.00;;;;;6.14;100.00;104076.09;5019839;28;45219;-76
2023/12/16 07:02:05;;;;;;;;;19.50;19.00;;;;;6.18;100.00;104092.84;5011074;28;45508;-75
2023/12/16 07:04:31;;;;;;;;;19.67;19.00;;;;;6.08;100.00;104086.47;5014410;28;50518;-76
2023/12/16 07:06:56;;;;;;;;;19.25;17.75;;;;;6.03;100.00;104085.47;4995604;28;45597;-75
2023/12/16 07:09:21;;;;;;;;;19.33;16.00;;;;;5.89;100.00;104065.84;5018556;28;52453;-76
2023/12/16 07:11:47;;;;;;;;;21.00;18.75;;;;;6.07;100.00;104105.72;5011764;28;45322;-75
2023/12/16 07:14:12;;;;;;;;;15.75;15.75;;;;;6.09;100.00;104113.63;5012957;28;46440;-76
2023/12/16 07:16:38;;;;;;;;;21.75;19.50;;;;;5.97;100.00;104110.69;5014201;28;45594;-75
2023/12/16 07:19:03;;;;;;;;;20.75;19.75;;;;;5.87;100.00;104093.81;5001822;28;45412;-76
2023/12/16 07:21:28;;;;;;;;;20.75;18.25;;;;;6.04;100.00;104115.25;5014359;28;45432;-75
2023/12/16 07:23:54;;;;;;;;;22.25;20.00;;;;;5.91;100.00;104106.19;4985484;28;47121;-76
2023/12/16 07:26:20;;;;;;;;;24.00;19.75;;;;;5.95;100.00;104109.78;4992906;28;45414;-75
2023/12/16 07:28:45;;;;;;;;;19.00;19.00;;;;;5.97;100.00;104122.09;4983011;28;45585;-76
2023/12/16 07:31:11;;;;;;;;;20.75;19.00;;;;;5.77;100.00;104078.66;4994423;28;45342;-75
2023/12/16 07:33:37;;;;;;;;;21.25;19.00;;;;;5.84;100.00;104100.69;4980865;28;45461;-76
2023/12/16 07:36:03;;;;;;;;;24.25;20.75;;;;;5.80;100.00;104102.34;4980677;28;45368;-75
2023/12/16 07:38:28;;;;;;;;;21.25;18.00;;;;;5.93;100.00;104129.84;4992560;28;45530;-75
2023/12/16 07:40:53;;;;;;;;;20.50;20.50;;;;;5.78;100.00;104122.44;4986216;28;47917;-75
2023/12/16 07:43:19;;;;;;;;;21.25;18.75;;;;;5.79;100.00;104124.25;5002933;28;46441;-75
2023/12/16 07:45:44;;;;;;;;;25.75;24.50;;;;;5.86;100.00;104143.72;4994961;28;45382;-75
2023/12/16 07:48:10;;;;;;;;;27.00;21.75;;;;;5.77;100.00;104128.53;5013568;28;45692;-76
2023/12/16 07:50:35;;;;;;;;;28.00;22.50;;;;;5.42;100.00;104072.50;4999505;28;45306;-76
2023/12/16 07:53:00;;;;;;;;;27.25;19.75;;;;;5.77;100.00;104134.69;4997795;28;47514;-77
2023/12/16 07:55:28;;;;;;;;;26.75;19.75;;;;;5.72;100.00;104123.19;4984985;28;45234;-76
2023/12/16 07:57:54;;;;;;;;;24.75;21.00;;;;;5.57;100.00;104109.66;4988007;28;45361;-77
2023/12/16 08:00:20;;;;;;;;;28.00;22.50;;;;;5.72;100.00;104141.56;4986992;28;45319;-75
2023/12/16 08:02:45;;;;;;;;;26.25;23.25;;;;;5.84;100.00;104156.75;4996894;28;48316;-76
2023/12/16 08:05:11;;;;;;;;;32.75;23.00;;;;;5.84;100.00;104154.13;4998825;28;57236;-75
2023/12/16 08:07:38;;;;;;;;;30.75;26.00;;;;;5.69;100.00;104146.72;4994498;28;45357;-75
2023/12/16 08:10:05;;;;;;;;;26.50;25.25;;;;;5.71;100.00;104171.28;4994195;28;45372;-75
2023/12/16 08:12:35;;;;;;;;;36.50;28.50;;;;;5.68;100.00;104141.44;4997289;28;45637;-74
2023/12/16 08:15:04;;;;;;;;;33.75;26.25;;;;;5.53;100.00;104118.28;5001133;28;45648;-74
2023/12/16 08:17:31;;;;;;;;;25.50;24.25;;;;;5.85;100.00;104169.03;4992268;28;45409;-74
2023/12/16 08:20:00;;;;;;;;;35.50;28.25;;;;;5.74;100.00;104147.75;4995308;28;45562;-74
2023/12/16 08:22:26;;;;;;;;;18.75;16.00;;;;;5.79;100.00;104156.63;4989411;28;47960;-77
2023/12/16 08:24:56;;;;;;;;;31.75;26.25;;;;;5.85;100.00;104189.16;4991822;28;45980;-75
2023/12/16 08:27:23;;;;;;;;;26.75;24.75;;;;;5.86;100.00;104181.34;4991940;28;45354;-75
2023/12/16 08:29:49;;;;;;;;;33.00;27.00;;;;;5.88;100.00;104181.41;5002614;28;45310;-74
2023/12/16 08:32:20;;;;;;;;;31.50;26.25;;;;;5.87;100.00;104180.50;5010228;28;46248;-77
2023/12/16 08:34:46;;;;;;;;;26.50;26.50;;;;;5.76;100.00;104159.16;5005086;28;45482;-77
2023/12/16 08:37:16;;;;;;;;;24.75;20.50;;;;;5.94;100.00;104174.56;5005628;28;45296;-76
2023/12/16 08:39:41;;;;;;;;;35.25;28.50;;;;;5.95;100.00;104184.22;5012697;28;45560;-74
2023/12/16 08:42:06;;;;;;;;;21.50;19.00;;;;;5.91;100.00;104163.97;4999166;28;45595;-76
2023/12/16 08:44:31;;;;;;;;;25.75;24.00;;;;;5.91;100.00;104165.72;4998532;28;45359;-76
2023/12/16 08:46:58;;;;;;;;;33.00;26.75;;;;;5.76;100.00;104159.16;4995669;28;46737;-74
2023/12/16 08:49:25;;;;;;;;;23.75;19.25;;;;;5.98;100.00;104172.91;4985829;28;45448;-74
2023/12/16 08:51:54;;;;;;;;;22.00;22.00;;;;;6.11;100.00;104207.41;4996936;28;45397;-75
2023/12/16 08:54:21;;;;;;;;;30.75;26.00;;;;;6.00;100.00;104176.44;5005473;28;45350;-75
2023/12/16 08:56:48;;;;;;;;;32.75;28.00;;;;;5.86;100.00;104155.06;4977820;28;45363;-75
2023/12/16 08:59:24;;;;;;;;;33.25;28.25;;;;;6.18;100.00;104206.69;4996828;28;45621;-75
2023/12/16 09:01:57;;;;;;;;;27.75;27.75;;;;;6.12;100.00;104205.66;4999992;28;45522;-75
2023/12/16 09:04:24;;;;;;;;;35.00;29.00;;;;;6.18;100.00;104192.69;4992404;28;45529;-75
2023/12/16 09:06:51;;;;;;;;;37.25;33.25;;;;;6.20;100.00;104197.13;4994838;28;45383;-75
2023/12/16 09:09:22;;;;;;;;;38.75;32.50;;;;;6.14;100.00;104189.09;4990136;28;45406;-75
2023/12/16 09:11:59;;;;;;;;;;;;;;;;;;;;;
2023/12/16 09:14:26;;;;;;;;;29.75;25.75;;;;;6.24;100.00;104191.13;4991009;28;71283;-75
2023/12/16 09:16:52;;;;;;;;;37.50;30.75;;;;;6.29;100.00;104178.06;5002362;28;45353;-74
2023/12/16 09:19:18;;;;;;;;;34.00;26.50;;;;;6.47;100.00;104202.19;5008064;28;45390;-74
2023/12/16 09:21:43;;;;;;;;;26.50;24.50;;;;;6.44;100.00;104190.72;5007348;28;45421;-75
2023/12/16 09:24:09;;;;;;;;;35.75;29.75;;;;;6.35;100.00;104167.69;5015153;28;45282;-74
2023/12/16 09:26:35;;;;;;;;;36.75;28.00;;;;;6.48;100.00;104177.66;5017550;28;45389;-75
2023/12/16 09:29:03;;;;;;;;;35.00;29.00;;;;;6.67;100.00;104194.78;5011105;28;45219;-75
2023/12/16 09:31:28;;;;;;;;;34.25;28.50;;;;;6.58;100.00;104165.59;5018856;28;46206;-76
2023/12/16 09:33:53;;;;;;;;;34.50;34.25;;;;;6.65;100.00;104180.69;5001793;28;45574;-77
2023/12/16 09:36:19;;;;;;;;;29.50;26.50;;;;;6.78;100.00;104194.16;5002554;28;45565;-76
2023/12/16 09:38:47;;;;;;;;;33.50;30.75;;;;;6.67;100.00;104190.41;5021234;28;45678;-74
2023/12/16 09:41:22;;;;;;;;;32.25;27.50;;;;;6.79;100.00;104187.16;5007811;28;45573;-75
2023/12/16 09:43:54;;;;;;;;;30.50;29.25;;;;;6.89;100.00;104194.41;5002807;28;45291;-73
2023/12/16 09:46:23;;;;;;;;;30.00;27.00;;;;;6.84;100.00;104182.00;5007729;28;45346;-74
2023/12/16 09:48:51;;;;;;;;;35.00;32.50;;;;;6.90;100.00;104175.13;5001007;28;45421;-75
2023/12/16 09:51:17;;;;;;;;;30.50;29.00;;;;;7.02;100.00;104190.28;4989129;28;46712;-76
2023/12/16 09:53:46;;;;;;;;;25.00;21.75;;;;;7.30;100.00;104225.13;5020981;28;45476;-75
2023/12/16 09:56:15;;;;;;;;;30.75;26.75;;;;;7.18;100.00;104184.50;5002763;28;45429;-75
2023/12/16 09:58:43;;;;;;;;;25.75;24.75;;;;;7.40;100.00;104213.03;5002846;28;45420;-76
2023/12/16 10:01:09;;;;;;;;;32.25;29.75;;;;;7.36;100.00;104197.16;5005820;28;45859;-76
2023/12/16 10:03:40;;;;;;;;;37.50;30.75;;;;;7.54;100.00;104215.94;5020554;28;45486;-75
2023/12/16 10:06:09;;;;;;;;;29.00;24.75;;;;;7.44;100.00;104195.56;5002606;28;45378;-75
2023/12/16 10:08:35;;;;;;;;;25.75;25.75;;;;;7.55;100.00;104200.19;5018729;28;45291;-75
2023/12/16 10:11:02;;;;;;;;;29.50;26.25;;;;;7.73;100.00;104221.59;5014545;28;45418;-75
2023/12/16 10:13:30;;;;;;;;;29.00;24.75;;;;;7.75;100.00;104227.81;5000133;28;45300;-76
2023/12/16 10:15:55;;;;;;;;;35.25;32.25;;;;;7.30;100.00;104142.59;5011568;28;45382;-76
2023/12/16 10:18:21;;;;;;;;;32.00;28.00;;;;;7.88;100.00;104211.34;5016590;28;45442;-76
2023/12/16 10:20:46;;;;;;;;;29.50;25.50;;;;;7.82;100.00;104179.63;5008149;28;45423;-76
2023/12/16 10:23:15;;;;;;;;;27.50;24.50;;;;;7.77;100.00;104183.94;5017058;28;45483;-77
2023/12/16 10:25:46;;;;;;;;;28.50;25.50;;;;;8.06;100.00;104209.91;5001680;28;45444;-75
2023/12/16 10:28:12;;;;;;;;;27.00;25.00;;;;;7.93;100.00;104177.19;4982508;28;45478;-75
2023/12/16 10:30:40;;;;;;;;;32.00;27.50;;;;;7.93;100.00;104160.47;5010352;28;46400;-75
2023/12/16 10:33:08;;;;;;;;;35.25;32.75;;;;;8.00;100.00;104181.69;5006889;28;45293;-75
2023/12/16 10:35:36;;;;;;;;;20.00;17.00;;;;;8.02;100.00;104155.34;5020272;28;45472;-75
2023/12/16 10:38:02;;;;;;;;;17.67;14.00;;;;;8.18;100.00;104175.88;5001555;28;45570;-75
2023/12/16 10:40:27;;;;;;;;;21.00;21.00;;;;;8.34;100.00;104199.03;5017804;28;45472;-75
2023/12/16 10:42:55;;;;;;;;;16.00;15.00;;;;;8.25;100.00;104177.72;5011395;28;45440;-75
2023/12/16 10:45:22;;;;;;;;;13.67;13.67;;;;;8.35;100.00;104174.41;4993840;28;45461;-76
2023/12/16 10:47:49;;;;;;;;;13.00;12.00;;;;;8.32;100.00;104156.78;5004756;28;45533;-75
2023/12/16 10:50:15;;;;;;;;;18.67;14.00;;;;;8.31;98.71;104141.81;5008119;28;45408;-75
2023/12/16 10:52:52;;;;;;;;;17.33;17.33;;;;;8.45;100.00;104156.97;5018439;28;45412;-75
2023/12/16 10:55:31;;;;;;;;;19.00;13.00;;;;;8.43;97.96;104138.50;5019837;28;45483;-75
2023/12/16 10:58:29;;;;;;;;;15.00;12.33;;;;;8.78;97.41;104179.47;5014492;28;45468;-75
2023/12/16 11:01:05;;;;;;;;;13.00;11.00;;;;;8.68;95.35;104151.16;5014927;28;45926;-75
2023/12/16 11:03:50;;;;;;;;;12.33;10.67;;;;;8.78;97.15;104161.00;5019252;28;45559;-76
2023/12/16 11:06:27;;;;;;;;;10.00;10.00;;;;;8.65;95.66;104113.31;4991706;28;45249;-75
2023/12/16 11:08:57;;;;;;;;;15.00;12.67;;;;;8.90;94.61;104158.50;4997034;28;45754;-75